No.3 Daieimaru — JD3430 — position and weather

sailwx.info

Track history (hours):
 
Tides and Currents Weather Stations Pressure Air Temp Water Temp Dewpoint Dewpoint Depression Visibility Wind Speed Wind Dir Waves Ship Positions

No.3 Daieimaru

Last reported at 2017-Dec-16 13:13 UTC. Time now 2017-Dec-18 12:54 UTC.
Position N 33°15' E 132°01'.

Length 90 m; draft 5 m.

Type: Tanker. MMSI: 431004049.

Date/timePositionNaut miles runAvg speedWind from/ knotsBaromVisibWave heightAir tempDewpointWater temp
2017-Dec-16 13:13N 33°15' E 132°01'415.7
2017-Dec-16 12:59N 33°18' E 131°59'2812.6
2017-Dec-16 10:43N 33°41' E 132°20'1013.3
2017-Dec-16 09:57N 33°48' E 132°29'613.0
2017-Dec-16 09:30N 33°52' E 132°34'713.0
2017-Dec-16 08:57N 33°56' E 132°41'10 0.6
2017-Dec-15 14:19N 34°04' E 132°49'413.5
2017-Dec-15 14:00N 34°01' E 132°46'713.5
2017-Dec-15 13:30N 33°56' E 132°40'713.9
2017-Dec-15 13:00N 33°51' E 132°34'914.0
2017-Dec-15 12:22N 33°46' E 132°25'614.5
2017-Dec-15 11:56N 33°44' E 132°18'1914.2
2017-Dec-15 10:37N 33°43' E 131°56'214.5
2017-Dec-15 10:30N 33°44' E 131°54'714.4
2017-Dec-15 10:01N 33°45' E 131°45'714.2
2017-Dec-15 09:31N 33°47' E 131°37'714.1
2017-Dec-15 09:01N 33°48' E 131°29'714.1
2017-Dec-15 08:30N 33°50' E 131°21'713.9
2017-Dec-15 08:00N 33°51' E 131°12'713.8
2017-Dec-15 07:30N 33°55' E 131°05'611.5
2017-Dec-15 07:01N 33°58' E 131°00'4 8.6
2017-Dec-15 06:31N 33°56' E 130°56'3 6.8
2017-Dec-15 06:01N 33°55' E 130°52'0 0.2
2017-Dec-15 05:30N 33°55' E 130°52'0 0.0
2017-Dec-15 05:01N 33°55' E 130°52'0 0.0
2017-Dec-15 04:30N 33°55' E 130°52'0 0.0
2017-Dec-15 04:01N 33°55' E 130°52'0 0.0
2017-Dec-15 02:31N 33°55' E 130°52'0 0.1
2017-Dec-15 01:01N 33°55' E 130°52'3 5.5
2017-Dec-15 00:31N 33°55' E 130°56'7 1.1
2017-Dec-14 18:31N 33°55' E 131°04'0 0.0
2017-Dec-14 18:00N 33°55' E 131°04'0 0.0
2017-Dec-14 17:31N 33°55' E 131°04'0 0.1
2017-Dec-14 17:01N 33°55' E 131°04'0 0.0
2017-Dec-14 16:30N 33°55' E 131°04'0 0.1
2017-Dec-14 16:00N 33°55' E 131°04'1111.5
2017-Dec-14 15:00N 33°51' E 131°16'713.6
2017-Dec-14 14:31N 33°50' E 131°24'2113.5
2017-Dec-14 12:57N 33°45' E 131°49'3213.4
2017-Dec-14 10:34N 33°48' E 132°28'214.0
2017-Dec-14 10:24N 33°49' E 132°30'513.7
2017-Dec-14 10:00N 33°52' E 132°35'613.0
2017-Dec-14 09:30N 33°57' E 132°41'86 2.8
2017-Dec-13 02:26N 34°24' E 134°19'613.1
2017-Dec-13 02:00N 34°26' E 134°26'2 3.9
2017-Dec-13 01:30N 34°27' E 134°28'713.7
2017-Dec-13 01:01N 34°29' E 134°35'713.5
2017-Dec-13 00:31N 34°32' E 134°43'713.3
2017-Dec-13 00:00N 34°35' E 134°50'713.7
2017-Dec-12 23:30N 34°37' E 134°58'713.3
2017-Dec-12 23:01N 34°35' E 135°05'714.3
2017-Dec-12 22:30N 34°28' E 135°04'714.4
2017-Dec-12 22:00N 34°21' E 135°01'714.3
2017-Dec-12 21:30N 34°14' E 134°59'713.6
2017-Dec-12 21:00N 34°07' E 135°01'103 8.5
2017-Dec-12 08:55N 34°33' E 137°01'714.5
2017-Dec-12 08:27N 34°37' E 136°55'614.5
2017-Dec-12 08:00N 34°42' E 136°49'714.7
2017-Dec-12 07:31N 34°48' E 136°45'714.6
2017-Dec-12 07:00N 34°56' E 136°46'611.6
2017-Dec-12 06:31N 35°00' E 136°50'0 0.5
2017-Dec-12 06:00N 34°60' E 136°51'0 0.0
2017-Dec-12 05:30N 34°60' E 136°51'0 0.0
2017-Dec-12 05:01N 34°60' E 136°51'0 0.0
2017-Dec-12 04:30N 34°60' E 136°51'0 0.0
2017-Dec-12 04:00N 34°60' E 136°51'0 0.0
2017-Dec-12 03:31N 34°60' E 136°51'0 0.0
2017-Dec-12 03:01N 34°60' E 136°51'0 0.0
2017-Dec-12 02:30N 34°60' E 136°51'0 0.0
2017-Dec-12 02:00N 34°60' E 136°51'0 0.0
2017-Dec-12 01:30N 34°60' E 136°51'0 0.0
2017-Dec-12 01:00N 34°60' E 136°51'0 0.0
2017-Dec-12 00:30N 34°60' E 136°51'0 0.0
2017-Dec-12 00:01N 34°60' E 136°51'0 0.0
2017-Dec-11 23:30N 34°60' E 136°51'1 2.8
2017-Dec-11 23:00N 34°59' E 136°49'4 8.2
2017-Dec-11 22:31N 34°57' E 136°45'0 0.3
2017-Dec-11 22:00N 34°57' E 136°45'0 0.0
2017-Dec-11 21:30N 34°57' E 136°45'0 0.0
2017-Dec-11 21:00N 34°57' E 136°45'0 0.0
2017-Dec-11 20:31N 34°57' E 136°45'0 0.0
2017-Dec-11 20:00N 34°57' E 136°45'0 0.0
2017-Dec-11 19:30N 34°57' E 136°45'0 0.0
2017-Dec-11 19:00N 34°57' E 136°45'0 0.0
2017-Dec-11 18:30N 34°57' E 136°45'0 0.0
2017-Dec-11 18:00N 34°57' E 136°45'0 0.0
2017-Dec-11 17:30N 34°57' E 136°45'0 0.0
2017-Dec-11 17:00N 34°57' E 136°45'0 0.0
2017-Dec-11 16:30N 34°57' E 136°45'0 0.0
2017-Dec-11 16:00N 34°57' E 136°45'0 0.0
2017-Dec-11 15:31N 34°57' E 136°45'0 0.0
2017-Dec-11 15:01N 34°57' E 136°45'0 0.0
2017-Dec-11 14:30N 34°57' E 136°45'0 0.0
2017-Dec-11 14:00N 34°57' E 136°45'0 0.0
2017-Dec-11 13:31N 34°57' E 136°45'0 0.0
2017-Dec-11 13:01N 34°57' E 136°45'0 0.0
2017-Dec-11 12:31N 34°57' E 136°45'0 0.0
2017-Dec-11 12:00N 34°57' E 136°45'0 0.0
2017-Dec-11 11:30N 34°57' E 136°45'0 0.0
2017-Dec-11 11:00N 34°57' E 136°45'0 0.0
2017-Dec-11 10:30N 34°57' E 136°45'0 0.0
2017-Dec-11 10:01N 34°57' E 136°45'0 0.0
2017-Dec-11 09:31N 34°57' E 136°45'1 3.0
2017-Dec-11 09:01N 34°56' E 136°47'712.5
2017-Dec-11 08:29N 34°49' E 136°47'612.4
2017-Dec-11 08:00N 34°44' E 136°49'103 8.6
2017-Dec-10 19:56N 33°46' E 135°05'614.2
2017-Dec-10 19:31N 33°51' E 135°00'714.4
2017-Dec-10 19:01N 33°58' E 134°60'713.9
2017-Dec-10 18:30N 34°05' E 134°59'714.2
2017-Dec-10 18:00N 34°12' E 134°59'713.6
2017-Dec-10 17:30N 34°19' E 134°59'713.6
2017-Dec-10 17:00N 34°26' E 135°01'713.5
2017-Dec-10 16:30N 34°32' E 135°02'510.4
2017-Dec-10 16:00N 34°37' E 135°00'713.5
2017-Dec-10 15:30N 34°34' E 134°53'713.7
2017-Dec-10 15:00N 34°32' E 134°45'714.0
2017-Dec-10 14:29N 34°29' E 134°37'91 2.3
2017-Dec-08 22:49N 34°05' E 132°50'513.8
2017-Dec-08 22:28N 34°01' E 132°46'613.0
2017-Dec-08 22:01N 33°56' E 132°42'812.9
2017-Dec-08 21:24N 33°51' E 132°35'3613.2
2017-Dec-08 18:39N 33°27' E 132°02'412.8
2017-Dec-08 18:22N 33°24' E 131°59'511.9
2017-Dec-08 17:56N 33°19' E 131°59'4 0.1
2017-Dec-07 07:46N 33°15' E 132°01'415.6
2017-Dec-07 07:30N 33°18' E 131°58'714.6
2017-Dec-07 07:00N 33°18' E 131°49'713.4
2017-Dec-07 06:30N 33°17' E 131°41'1 1.1
2017-Dec-07 06:00N 33°17' E 131°41'0 0.0
2017-Dec-07 05:30N 33°17' E 131°41'0 0.0
2017-Dec-07 05:00N 33°17' E 131°41'0 0.0
2017-Dec-07 04:30N 33°17' E 131°41'0 0.0
2017-Dec-07 04:00N 33°17' E 131°41'0 0.0
2017-Dec-07 03:30N 33°17' E 131°41'0 0.0
2017-Dec-07 02:59N 33°17' E 131°41'1 2.4
2017-Dec-07 02:30N 33°18' E 131°41'4 8.3
2017-Dec-07 02:00N 33°22' E 131°42'0 0.0
2017-Dec-07 01:27N 33°22' E 131°42'0 0.0
2017-Dec-07 00:56N 33°22' E 131°42'0 0.0
2017-Dec-06 23:55N 33°22' E 131°42'0 0.0
2017-Dec-06 23:22N 33°22' E 131°42'0 0.1
2017-Dec-06 22:32N 33°22' E 131°42'0 4.1
2017-Dec-06 22:29N 33°22' E 131°42'713.7
2017-Dec-06 22:00N 33°22' E 131°50'914.6
2017-Dec-06 21:24N 33°19' E 132°00'1014.6
2017-Dec-06 20:43N 33°11' E 132°07'  
Track history (hours):
 
Tides and Currents Weather Stations Pressure Air Temp Water Temp Dewpoint Dewpoint Depression Visibility Wind Speed Wind Dir Waves Ship Positions

No.3 Daieimaru

Last reported at 2017-Dec-16 13:13 UTC. Time now 2017-Dec-18 12:54 UTC.
Position N 33°15' E 132°01'.

Length 90 m; draft 5 m.

Type: Tanker. MMSI: 431004049.

Date/timePositionNaut miles runAvg speedWind from/ knotsBaromVisibWave heightAir tempDewpointWater temp
2017-Dec-16 13:13N 33°15' E 132°01'415.7
2017-Dec-16 12:59N 33°18' E 131°59'2812.6
2017-Dec-16 10:43N 33°41' E 132°20'1013.3
2017-Dec-16 09:57N 33°48' E 132°29'613.0
2017-Dec-16 09:30N 33°52' E 132°34'713.0
2017-Dec-16 08:57N 33°56' E 132°41'10 0.6
2017-Dec-15 14:19N 34°04' E 132°49'413.5
2017-Dec-15 14:00N 34°01' E 132°46'713.5
2017-Dec-15 13:30N 33°56' E 132°40'713.9
2017-Dec-15 13:00N 33°51' E 132°34'914.0
2017-Dec-15 12:22N 33°46' E 132°25'614.5
2017-Dec-15 11:56N 33°44' E 132°18'1914.2
2017-Dec-15 10:37N 33°43' E 131°56'214.5
2017-Dec-15 10:30N 33°44' E 131°54'714.4
2017-Dec-15 10:01N 33°45' E 131°45'714.2
2017-Dec-15 09:31N 33°47' E 131°37'714.1
2017-Dec-15 09:01N 33°48' E 131°29'714.1
2017-Dec-15 08:30N 33°50' E 131°21'713.9
2017-Dec-15 08:00N 33°51' E 131°12'713.8
2017-Dec-15 07:30N 33°55' E 131°05'611.5
2017-Dec-15 07:01N 33°58' E 131°00'4 8.6
2017-Dec-15 06:31N 33°56' E 130°56'3 6.8
2017-Dec-15 06:01N 33°55' E 130°52'0 0.2
2017-Dec-15 05:30N 33°55' E 130°52'0 0.0
2017-Dec-15 05:01N 33°55' E 130°52'0 0.0
2017-Dec-15 04:30N 33°55' E 130°52'0 0.0
2017-Dec-15 04:01N 33°55' E 130°52'0 0.0
2017-Dec-15 02:31N 33°55' E 130°52'0 0.1
2017-Dec-15 01:01N 33°55' E 130°52'3 5.5
2017-Dec-15 00:31N 33°55' E 130°56'7 1.1
2017-Dec-14 18:31N 33°55' E 131°04'0 0.0
2017-Dec-14 18:00N 33°55' E 131°04'0 0.0
2017-Dec-14 17:31N 33°55' E 131°04'0 0.1
2017-Dec-14 17:01N 33°55' E 131°04'0 0.0
2017-Dec-14 16:30N 33°55' E 131°04'0 0.1
2017-Dec-14 16:00N 33°55' E 131°04'1111.5
2017-Dec-14 15:00N 33°51' E 131°16'713.6
2017-Dec-14 14:31N 33°50' E 131°24'2113.5
2017-Dec-14 12:57N 33°45' E 131°49'3213.4
2017-Dec-14 10:34N 33°48' E 132°28'214.0
2017-Dec-14 10:24N 33°49' E 132°30'513.7
2017-Dec-14 10:00N 33°52' E 132°35'613.0
2017-Dec-14 09:30N 33°57' E 132°41'86 2.8
2017-Dec-13 02:26N 34°24' E 134°19'613.1
2017-Dec-13 02:00N 34°26' E 134°26'2 3.9
2017-Dec-13 01:30N 34°27' E 134°28'713.7
2017-Dec-13 01:01N 34°29' E 134°35'713.5
2017-Dec-13 00:31N 34°32' E 134°43'713.3
2017-Dec-13 00:00N 34°35' E 134°50'713.7
2017-Dec-12 23:30N 34°37' E 134°58'713.3
2017-Dec-12 23:01N 34°35' E 135°05'714.3
2017-Dec-12 22:30N 34°28' E 135°04'714.4
2017-Dec-12 22:00N 34°21' E 135°01'714.3
2017-Dec-12 21:30N 34°14' E 134°59'713.6
2017-Dec-12 21:00N 34°07' E 135°01'103 8.5
2017-Dec-12 08:55N 34°33' E 137°01'714.5
2017-Dec-12 08:27N 34°37' E 136°55'614.5
2017-Dec-12 08:00N 34°42' E 136°49'714.7
2017-Dec-12 07:31N 34°48' E 136°45'714.6
2017-Dec-12 07:00N 34°56' E 136°46'611.6
2017-Dec-12 06:31N 35°00' E 136°50'0 0.5
2017-Dec-12 06:00N 34°60' E 136°51'0 0.0
2017-Dec-12 05:30N 34°60' E 136°51'0 0.0
2017-Dec-12 05:01N 34°60' E 136°51'0 0.0
2017-Dec-12 04:30N 34°60' E 136°51'0 0.0
2017-Dec-12 04:00N 34°60' E 136°51'0 0.0
2017-Dec-12 03:31N 34°60' E 136°51'0 0.0
2017-Dec-12 03:01N 34°60' E 136°51'0 0.0
2017-Dec-12 02:30N 34°60' E 136°51'0 0.0
2017-Dec-12 02:00N 34°60' E 136°51'0 0.0
2017-Dec-12 01:30N 34°60' E 136°51'0 0.0
2017-Dec-12 01:00N 34°60' E 136°51'0 0.0
2017-Dec-12 00:30N 34°60' E 136°51'0 0.0
2017-Dec-12 00:01N 34°60' E 136°51'0 0.0
2017-Dec-11 23:30N 34°60' E 136°51'1 2.8
2017-Dec-11 23:00N 34°59' E 136°49'4 8.2
2017-Dec-11 22:31N 34°57' E 136°45'0 0.3
2017-Dec-11 22:00N 34°57' E 136°45'0 0.0
2017-Dec-11 21:30N 34°57' E 136°45'0 0.0
2017-Dec-11 21:00N 34°57' E 136°45'0 0.0
2017-Dec-11 20:31N 34°57' E 136°45'0 0.0
2017-Dec-11 20:00N 34°57' E 136°45'0 0.0
2017-Dec-11 19:30N 34°57' E 136°45'0 0.0
2017-Dec-11 19:00N 34°57' E 136°45'0 0.0
2017-Dec-11 18:30N 34°57' E 136°45'0 0.0
2017-Dec-11 18:00N 34°57' E 136°45'0 0.0
2017-Dec-11 17:30N 34°57' E 136°45'0 0.0
2017-Dec-11 17:00N 34°57' E 136°45'0 0.0
2017-Dec-11 16:30N 34°57' E 136°45'0 0.0
2017-Dec-11 16:00N 34°57' E 136°45'0 0.0
2017-Dec-11 15:31N 34°57' E 136°45'0 0.0
2017-Dec-11 15:01N 34°57' E 136°45'0 0.0
2017-Dec-11 14:30N 34°57' E 136°45'0 0.0
2017-Dec-11 14:00N 34°57' E 136°45'0 0.0
2017-Dec-11 13:31N 34°57' E 136°45'0 0.0
2017-Dec-11 13:01N 34°57' E 136°45'0 0.0
2017-Dec-11 12:31N 34°57' E 136°45'0 0.0
2017-Dec-11 12:00N 34°57' E 136°45'0 0.0
2017-Dec-11 11:30N 34°57' E 136°45'0 0.0
2017-Dec-11 11:00N 34°57' E 136°45'0 0.0
2017-Dec-11 10:30N 34°57' E 136°45'0 0.0
2017-Dec-11 10:01N 34°57' E 136°45'0 0.0
2017-Dec-11 09:31N 34°57' E 136°45'1 3.0
2017-Dec-11 09:01N 34°56' E 136°47'712.5
2017-Dec-11 08:29N 34°49' E 136°47'612.4
2017-Dec-11 08:00N 34°44' E 136°49'103 8.6
2017-Dec-10 19:56N 33°46' E 135°05'614.2
2017-Dec-10 19:31N 33°51' E 135°00'714.4
2017-Dec-10 19:01N 33°58' E 134°60'713.9
2017-Dec-10 18:30N 34°05' E 134°59'714.2
2017-Dec-10 18:00N 34°12' E 134°59'713.6
2017-Dec-10 17:30N 34°19' E 134°59'713.6
2017-Dec-10 17:00N 34°26' E 135°01'713.5
2017-Dec-10 16:30N 34°32' E 135°02'510.4
2017-Dec-10 16:00N 34°37' E 135°00'713.5
2017-Dec-10 15:30N 34°34' E 134°53'713.7
2017-Dec-10 15:00N 34°32' E 134°45'714.0
2017-Dec-10 14:29N 34°29' E 134°37'91 2.3
2017-Dec-08 22:49N 34°05' E 132°50'513.8
2017-Dec-08 22:28N 34°01' E 132°46'613.0
2017-Dec-08 22:01N 33°56' E 132°42'812.9
2017-Dec-08 21:24N 33°51' E 132°35'3613.2
2017-Dec-08 18:39N 33°27' E 132°02'412.8
2017-Dec-08 18:22N 33°24' E 131°59'511.9
2017-Dec-08 17:56N 33°19' E 131°59'4 0.1
2017-Dec-07 07:46N 33°15' E 132°01'415.6
2017-Dec-07 07:30N 33°18' E 131°58'714.6
2017-Dec-07 07:00N 33°18' E 131°49'713.4
2017-Dec-07 06:30N 33°17' E 131°41'1 1.1
2017-Dec-07 06:00N 33°17' E 131°41'0 0.0
2017-Dec-07 05:30N 33°17' E 131°41'0 0.0
2017-Dec-07 05:00N 33°17' E 131°41'0 0.0
2017-Dec-07 04:30N 33°17' E 131°41'0 0.0
2017-Dec-07 04:00N 33°17' E 131°41'0 0.0
2017-Dec-07 03:30N 33°17' E 131°41'0 0.0
2017-Dec-07 02:59N 33°17' E 131°41'1 2.4
2017-Dec-07 02:30N 33°18' E 131°41'4 8.3
2017-Dec-07 02:00N 33°22' E 131°42'0 0.0
2017-Dec-07 01:27N 33°22' E 131°42'0 0.0
2017-Dec-07 00:56N 33°22' E 131°42'0 0.0
2017-Dec-06 23:55N 33°22' E 131°42'0 0.0
2017-Dec-06 23:22N 33°22' E 131°42'0 0.1
2017-Dec-06 22:32N 33°22' E 131°42'0 4.1
2017-Dec-06 22:29N 33°22' E 131°42'713.7
2017-Dec-06 22:00N 33°22' E 131°50'914.6
2017-Dec-06 21:24N 33°19' E 132°00'1014.6
2017-Dec-06 20:43N 33°11' E 132°07'  

Dump ship's entire track history